RORT(METAR)
10/20 16:00
RORT 200700Z 04013G23KT 9999 SCT018 BKN045 29/25 Q1012 RMK A2989=
戻る
トップページへ戻る
IMOC Co,.Ltd.